sensor_id;sensor_type;location;lat;lon;timestamp;pressure;altitude;pressure_sealevel;temperature;humidity
23164;BME280;31429;42.674;23.350;2022-08-19T03:01:46;94484.88;;;18.97;100.00
23164;BME280;31429;42.674;23.350;2022-08-19T03:02:51;94466.66;;;19.10;100.00
23164;BME280;31429;42.674;23.350;2022-08-19T03:04:15;94291.72;;;17.92;100.00
23164;BME280;31429;42.674;23.350;2022-08-19T03:05:16;94581.75;;;19.64;100.00
23164;BME280;31429;42.674;23.350;2022-08-19T03:06:25;94403.06;;;18.49;100.00
23164;BME280;31429;42.674;23.350;2022-08-19T03:09:10;94521.19;;;19.19;100.00
23164;BME280;31429;42.674;23.350;2022-08-19T03:12:07;94293.78;;;17.75;100.00
23164;BME280;31429;42.674;23.350;2022-08-19T03:13:11;94424.75;;;18.59;100.00
23164;BME280;31429;42.674;23.350;2022-08-19T03:14:16;94435.38;;;18.67;100.00
23164;BME280;31429;42.674;23.350;2022-08-19T03:15:26;94308.00;;;17.81;100.00
23164;BME280;31429;42.674;23.350;2022-08-19T03:16:31;94452.00;;;18.75;100.00
23164;BME280;31429;42.674;23.350;2022-08-19T03:17:58;94549.63;;;19.32;100.00
23164;BME280;31429;42.674;23.350;2022-08-19T03:19:24;94458.00;;;18.76;100.00
23164;BME280;31429;42.674;23.350;2022-08-19T03:21:01;94281.41;;;17.68;100.00
23164;BME280;31429;42.674;23.350;2022-08-19T03:24:49;94284.69;;;17.70;100.00
23164;BME280;31429;42.674;23.350;2022-08-19T03:26:02;94391.97;;;18.47;100.00
23164;BME280;31429;42.674;23.350;2022-08-19T03:27:05;94366.81;;;18.25;100.00
23164;BME280;31429;42.674;23.350;2022-08-19T03:28:47;94425.69;;;18.58;100.00
23164;BME280;31429;42.674;23.350;2022-08-19T03:29:50;94513.13;;;18.89;100.00
23164;BME280;31429;42.674;23.350;2022-08-19T03:31:03;94413.19;;;18.28;100.00
23164;BME280;31429;42.674;23.350;2022-08-19T03:32:08;94458.44;;;18.46;100.00
23164;BME280;31429;42.674;23.350;2022-08-19T03:33:30;94251.97;;;17.10;100.00
23164;BME280;31429;42.674;23.350;2022-08-19T03:34:37;94271.69;;;17.35;100.00
23164;BME280;31429;42.674;23.350;2022-08-19T04:12:44;94331.69;;;17.51;100.00
23164;BME280;31429;42.674;23.350;2022-08-19T04:13:52;94474.19;;;18.56;100.00
23164;BME280;31429;42.674;23.350;2022-08-19T04:14:54;94577.50;;;19.17;100.00
23164;BME280;31429;42.674;23.350;2022-08-19T04:15:58;94320.38;;;17.41;100.00
23164;BME280;31429;42.674;23.350;2022-08-19T04:17:01;94503.72;;;18.53;100.00
23164;BME280;31429;42.674;23.350;2022-08-19T04:18:05;94473.81;;;18.60;100.00
23164;BME280;31429;42.674;23.350;2022-08-19T04:19:09;94590.38;;;19.30;100.00
23164;BME280;31429;42.674;23.350;2022-08-19T04:20:10;94391.78;;;18.02;100.00
23164;BME280;31429;42.674;23.350;2022-08-19T04:21:16;94332.44;;;17.77;100.00
23164;BME280;31429;42.674;23.350;2022-08-19T04:22:17;94358.56;;;18.09;100.00
23164;BME280;31429;42.674;23.350;2022-08-19T04:23:19;94481.94;;;19.02;100.00
23164;BME280;31429;42.674;23.350;2022-08-19T04:24:22;94421.59;;;18.66;100.00
23164;BME280;31429;42.674;23.350;2022-08-19T04:25:23;94418.00;;;18.56;100.00
23164;BME280;31429;42.674;23.350;2022-08-19T04:26:26;94469.47;;;18.96;100.00
23164;BME280;31429;42.674;23.350;2022-08-19T04:27:27;94466.28;;;19.03;100.00
23164;BME280;31429;42.674;23.350;2022-08-19T04:28:30;94599.00;;;19.76;100.00
23164;BME280;31429;42.674;23.350;2022-08-19T04:29:31;94549.63;;;19.32;100.00
23164;BME280;31429;42.674;23.350;2022-08-19T04:30:37;94334.66;;;18.05;100.00
23164;BME280;31429;42.674;23.350;2022-08-19T04:31:40;94617.84;;;19.78;100.00
23164;BME280;31429;42.674;23.350;2022-08-19T04:32:42;94423.16;;;18.80;100.00
23164;BME280;31429;42.674;23.350;2022-08-19T04:33:45;94535.91;;;19.54;100.00
23164;BME280;31429;42.674;23.350;2022-08-19T04:34:49;94344.53;;;18.35;100.00
23164;BME280;31429;42.674;23.350;2022-08-19T04:35:52;94350.06;;;18.30;100.00
23164;BME280;31429;42.674;23.350;2022-08-19T04:36:55;94590.50;;;19.96;100.00
23164;BME280;31429;42.674;23.350;2022-08-19T04:37:58;94535.91;;;19.65;100.00
23164;BME280;31429;42.674;23.350;2022-08-19T04:39:02;94507.50;;;19.52;100.00
23164;BME280;31429;42.674;23.350;2022-08-19T04:40:06;94336.13;;;18.55;100.00
23164;BME280;31429;42.674;23.350;2022-08-19T04:41:26;94567.63;;;20.01;100.00
23164;BME280;31429;42.674;23.350;2022-08-19T04:42:46;94431.44;;;19.18;100.00
23164;BME280;31429;42.674;23.350;2022-08-19T04:44:10;94372.31;;;19.01;100.00
23164;BME280;31429;42.674;23.350;2022-08-19T04:45:13;94355.44;;;18.84;100.00
23164;BME280;31429;42.674;23.350;2022-08-19T04:46:16;94430.50;;;19.41;100.00
23164;BME280;31429;42.674;23.350;2022-08-19T04:47:19;94340.41;;;18.78;100.00
23164;BME280;31429;42.674;23.350;2022-08-19T04:48:22;94578.34;;;20.41;100.00
23164;BME280;31429;42.674;23.350;2022-08-19T04:49:28;94486.03;;;19.83;100.00
23164;BME280;31429;42.674;23.350;2022-08-19T04:50:31;94473.41;;;19.79;100.00
23164;BME280;31429;42.674;23.350;2022-08-19T04:51:39;94319.66;;;18.78;100.00
23164;BME280;31429;42.674;23.350;2022-08-19T04:52:40;94474.59;;;19.75;100.00
23164;BME280;31429;42.674;23.350;2022-08-19T04:53:43;94515.84;;;20.11;100.00
23164;BME280;31429;42.674;23.350;2022-08-19T04:54:50;94338.50;;;18.80;100.00
23164;BME280;31429;42.674;23.350;2022-08-19T04:56:16;94486.03;;;19.83;100.00
23164;BME280;31429;42.674;23.350;2022-08-19T04:57:38;94607.25;;;20.59;100.00
23164;BME280;31429;42.674;23.350;2022-08-19T04:58:44;94312.22;;;18.85;100.00
23164;BME280;31429;42.674;23.350;2022-08-19T05:00:13;94532.56;;;20.18;100.00
23164;BME280;31429;42.674;23.350;2022-08-19T05:01:20;94323.56;;;18.84;100.00
23164;BME280;31429;42.674;23.350;2022-08-19T05:02:24;94586.59;;;20.57;100.00
23164;BME280;31429;42.674;23.350;2022-08-19T05:03:46;94418.38;;;19.53;100.00
23164;BME280;31429;42.674;23.350;2022-08-19T05:05:13;94340.72;;;19.07;100.00
23164;BME280;31429;42.674;23.350;2022-08-19T05:06:36;94457.78;;;20.01;100.00
23164;BME280;31429;42.674;23.350;2022-08-19T05:07:40;94307.97;;;19.17;100.00
23164;BME280;31429;42.674;23.350;2022-08-19T05:08:43;94429.63;;;19.96;100.00
23164;BME280;31429;42.674;23.350;2022-08-19T05:10:07;94360.91;;;19.80;100.00
23164;BME280;31429;42.674;23.350;2022-08-19T07:51:23;94396.94;;;27.26;65.61
23164;BME280;31429;42.674;23.350;2022-08-19T08:11:38;94601.97;;;28.52;74.26
23164;BME280;31429;42.674;23.350;2022-08-19T08:12:40;94612.47;;;28.60;67.70
23164;BME280;31429;42.674;23.350;2022-08-19T08:13:42;94461.28;;;27.46;66.58
23164;BME280;31429;42.674;23.350;2022-08-19T08:18:54;94587.41;;;28.33;64.30
23164;BME280;31429;42.674;23.350;2022-08-19T08:19:55;94434.47;;;27.67;67.25
23164;BME280;31429;42.674;23.350;2022-08-19T08:45:31;94511.53;;;29.89;100.00
23164;BME280;31429;42.674;23.350;2022-08-19T08:46:56;94488.69;;;29.67;71.88
23164;BME280;31429;42.674;23.350;2022-08-19T08:48:02;94578.91;;;30.44;100.00
23164;BME280;31429;42.674;23.350;2022-08-19T08:49:06;94568.84;;;30.68;100.00
23164;BME280;31429;42.674;23.350;2022-08-19T08:50:20;94537.66;;;30.43;67.40
23164;BME280;31429;42.674;23.350;2022-08-19T08:51:26;94562.84;;;30.74;86.10
23164;BME280;31429;42.674;23.350;2022-08-19T08:52:31;94561.13;;;30.82;76.62
23164;BME280;31429;42.674;23.350;2022-08-19T08:53:36;94571.03;;;30.94;76.26
23164;BME280;31429;42.674;23.350;2022-08-19T08:54:41;94568.38;;;30.94;53.63
23164;BME280;31429;42.674;23.350;2022-08-19T08:55:44;94565.44;;;30.53;63.65
23164;BME280;31429;42.674;23.350;2022-08-19T08:56:47;94560.56;;;30.71;83.13
23164;BME280;31429;42.674;23.350;2022-08-19T08:57:52;94541.84;;;30.66;52.31
23164;BME280;31429;42.674;23.350;2022-08-19T08:58:58;94517.38;;;30.43;49.15
23164;BME280;31429;42.674;23.350;2022-08-19T09:00:03;94566.44;;;31.03;100.00
23164;BME280;31429;42.674;23.350;2022-08-19T09:01:09;94568.09;;;31.04;100.00
23164;BME280;31429;42.674;23.350;2022-08-19T09:02:10;94410.38;;;30.05;100.00
23164;BME280;31429;42.674;23.350;2022-08-19T09:03:17;94558.03;;;30.93;57.95
23164;BME280;31429;42.674;23.350;2022-08-19T09:04:19;94546.84;;;30.61;54.68
23164;BME280;31429;42.674;23.350;2022-08-19T09:05:21;94524.47;;;30.43;57.77
23164;BME280;31429;42.674;23.350;2022-08-19T09:06:27;94562.00;;;30.89;100.00
23164;BME280;31429;42.674;23.350;2022-08-19T09:07:39;94454.47;;;29.82;65.31
23164;BME280;31429;42.674;23.350;2022-08-19T09:08:49;94523.75;;;30.05;100.00
23164;BME280;31429;42.674;23.350;2022-08-19T09:11:55;94446.16;;;29.70;66.10
23164;BME280;31429;42.674;23.350;2022-08-19T09:13:04;94433.84;;;29.85;58.54
23164;BME280;31429;42.674;23.350;2022-08-19T09:14:19;94563.75;;;30.82;100.00
23164;BME280;31429;42.674;23.350;2022-08-19T09:15:31;94518.00;;;30.60;100.00
23164;BME280;31429;42.674;23.350;2022-08-19T09:22:58;94485.28;;;30.10;100.00
23164;BME280;31429;42.674;23.350;2022-08-19T09:24:09;94465.19;;;29.95;47.27
23164;BME280;31429;42.674;23.350;2022-08-19T09:26:42;94531.03;;;30.83;67.06
23164;BME280;31429;42.674;23.350;2022-08-19T09:27:46;94454.06;;;30.43;92.83
23164;BME280;31429;42.674;23.350;2022-08-19T09:28:50;94425.63;;;30.09;78.19
23164;BME280;31429;42.674;23.350;2022-08-19T09:31:07;94339.50;;;29.51;65.73
23164;BME280;31429;42.674;23.350;2022-08-19T09:40:53;94465.53;;;30.50;78.80
23164;BME280;31429;42.674;23.350;2022-08-19T09:42:27;94344.56;;;29.68;74.93
23164;BME280;31429;42.674;23.350;2022-08-19T09:43:32;94477.78;;;30.29;84.54
23164;BME280;31429;42.674;23.350;2022-08-19T10:17:18;94449.19;;;30.83;49.83
23164;BME280;31429;42.674;23.350;2022-08-19T10:18:57;94500.16;;;31.40;42.75
23164;BME280;31429;42.674;23.350;2022-08-19T10:19:58;94446.78;;;31.23;43.51
23164;BME280;31429;42.674;23.350;2022-08-19T10:21:05;94499.66;;;31.79;42.28
23164;BME280;31429;42.674;23.350;2022-08-19T10:22:08;94503.25;;;31.93;40.46
23164;BME280;31429;42.674;23.350;2022-08-19T10:23:11;94493.81;;;32.11;38.00
23164;BME280;31429;42.674;23.350;2022-08-19T10:24:12;94490.81;;;32.21;39.39
23164;BME280;31429;42.674;23.350;2022-08-19T10:25:13;94493.31;;;32.29;38.38
23164;BME280;31429;42.674;23.350;2022-08-19T10:26:16;94494.13;;;32.36;37.94
23164;BME280;31429;42.674;23.350;2022-08-19T10:27:18;94494.38;;;32.41;37.48
23164;BME280;31429;42.674;23.350;2022-08-19T10:28:18;94500.31;;;32.50;49.60
23164;BME280;31429;42.674;23.350;2022-08-19T10:29:19;94492.78;;;32.47;56.37
23164;BME280;31429;42.674;23.350;2022-08-19T10:30:20;94494.22;;;32.49;41.57
23164;BME280;31429;42.674;23.350;2022-08-19T10:31:23;94489.16;;;32.54;37.96
23164;BME280;31429;42.674;23.350;2022-08-19T10:32:25;94493.28;;;32.70;38.56
23164;BME280;31429;42.674;23.350;2022-08-19T10:33:26;94494.78;;;32.85;53.05
23164;BME280;31429;42.674;23.350;2022-08-19T10:34:29;94494.16;;;32.83;40.70
23164;BME280;31429;42.674;23.350;2022-08-19T10:35:30;94462.72;;;32.67;38.53
23164;BME280;31429;42.674;23.350;2022-08-19T10:36:33;94492.53;;;32.89;38.53
23164;BME280;31429;42.674;23.350;2022-08-19T10:37:36;94430.56;;;32.64;43.34
23164;BME280;31429;42.674;23.350;2022-08-19T10:38:37;94387.25;;;32.37;39.42
23164;BME280;31429;42.674;23.350;2022-08-19T10:39:38;94486.94;;;32.64;40.56
23164;BME280;31429;42.674;23.350;2022-08-19T10:40:39;94480.22;;;32.62;39.77
23164;BME280;31429;42.674;23.350;2022-08-19T10:41:40;94486.78;;;32.66;43.18
23164;BME280;31429;42.674;23.350;2022-08-19T10:42:42;94356.13;;;31.92;38.29
23164;BME280;31429;42.674;23.350;2022-08-19T10:43:45;94467.81;;;32.62;37.75
23164;BME280;31429;42.674;23.350;2022-08-19T10:44:46;94484.75;;;32.74;38.33
23164;BME280;31429;42.674;23.350;2022-08-19T10:45:53;94466.38;;;32.60;44.58
23164;BME280;31429;42.674;23.350;2022-08-19T10:46:59;94460.81;;;32.48;38.71
23164;BME280;31429;42.674;23.350;2022-08-19T10:48:01;94486.16;;;32.64;36.83
23164;BME280;31429;42.674;23.350;2022-08-19T10:49:04;94483.13;;;32.73;37.94
23164;BME280;31429;42.674;23.350;2022-08-19T10:50:05;94448.09;;;32.71;39.46
23164;BME280;31429;42.674;23.350;2022-08-19T10:51:25;94466.63;;;32.84;37.53
23164;BME280;31429;42.674;23.350;2022-08-19T10:52:46;94461.50;;;32.63;38.47
23164;BME280;31429;42.674;23.350;2022-08-19T10:53:48;94476.56;;;32.63;42.06
23164;BME280;31429;42.674;23.350;2022-08-19T10:54:48;94463.03;;;32.44;39.78
23164;BME280;31429;42.674;23.350;2022-08-19T10:56:08;94475.19;;;32.80;37.12
23164;BME280;31429;42.674;23.350;2022-08-19T10:57:30;94485.38;;;32.76;36.03
23164;BME280;31429;42.674;23.350;2022-08-19T10:58:31;94447.22;;;32.64;37.06
23164;BME280;31429;42.674;23.350;2022-08-19T10:59:31;94476.22;;;32.85;37.12
23164;BME280;31429;42.674;23.350;2022-08-19T11:00:32;94428.44;;;32.53;36.79
23164;BME280;31429;42.674;23.350;2022-08-19T11:01:34;94464.41;;;32.88;39.55
23164;BME280;31429;42.674;23.350;2022-08-19T11:02:35;94469.78;;;33.08;41.18
23164;BME280;31429;42.674;23.350;2022-08-19T11:03:37;94476.66;;;33.02;39.28
23164;BME280;31429;42.674;23.350;2022-08-19T11:04:39;94480.75;;;33.05;39.87
23164;BME280;31429;42.674;23.350;2022-08-19T11:05:39;94462.19;;;32.91;38.24
23164;BME280;31429;42.674;23.350;2022-08-19T11:06:41;94419.53;;;32.67;47.46
23164;BME280;31429;42.674;23.350;2022-08-19T11:07:43;94478.72;;;33.00;44.54
23164;BME280;31429;42.674;23.350;2022-08-19T11:08:45;94476.44;;;32.90;37.55
23164;BME280;31429;42.674;23.350;2022-08-19T11:09:46;94447.28;;;32.77;37.89
23164;BME280;31429;42.674;23.350;2022-08-19T11:11:06;94475.44;;;32.98;48.78
23164;BME280;31429;42.674;23.350;2022-08-19T11:12:08;94447.50;;;32.89;54.74
23164;BME280;31429;42.674;23.350;2022-08-19T11:13:09;94445.44;;;32.84;56.52
23164;BME280;31429;42.674;23.350;2022-08-19T11:14:13;94472.56;;;32.93;58.11
23164;BME280;31429;42.674;23.350;2022-08-19T11:15:14;94469.91;;;32.93;43.24
23164;BME280;31429;42.674;23.350;2022-08-19T11:16:16;94416.09;;;32.66;52.27
23164;BME280;31429;42.674;23.350;2022-08-19T11:17:18;94467.50;;;33.05;44.20
23164;BME280;31429;42.674;23.350;2022-08-19T11:18:18;94468.13;;;33.07;56.35
23164;BME280;31429;42.674;23.350;2022-08-19T11:19:21;94446.28;;;32.85;39.49
23164;BME280;31429;42.674;23.350;2022-08-19T11:20:24;94465.25;;;32.88;59.11
23164;BME280;31429;42.674;23.350;2022-08-19T11:21:27;94464.75;;;32.65;61.86
23164;BME280;31429;42.674;23.350;2022-08-19T11:22:27;94341.56;;;31.61;63.98
23164;BME280;31429;42.674;23.350;2022-08-19T11:23:28;94467.50;;;32.37;61.91
23164;BME280;31429;42.674;23.350;2022-08-19T11:24:29;94462.03;;;32.46;62.44
23164;BME280;31429;42.674;23.350;2022-08-19T11:25:30;94462.19;;;32.44;61.24
23164;BME280;31429;42.674;23.350;2022-08-19T11:26:31;94444.50;;;32.38;54.50
23164;BME280;31429;42.674;23.350;2022-08-19T11:27:32;94465.50;;;32.46;61.08
23164;BME280;31429;42.674;23.350;2022-08-19T11:28:33;94448.19;;;32.43;55.61
23164;BME280;31429;42.674;23.350;2022-08-19T11:29:35;94405.47;;;32.06;60.49
23164;BME280;31429;42.674;23.350;2022-08-19T11:30:37;94454.88;;;32.39;49.11
23164;BME280;31429;42.674;23.350;2022-08-19T11:31:39;94454.22;;;32.31;62.61
23164;BME280;31429;42.674;23.350;2022-08-19T11:32:41;94431.59;;;32.22;41.36
23164;BME280;31429;42.674;23.350;2022-08-19T11:33:42;94451.66;;;32.51;58.43
23164;BME280;31429;42.674;23.350;2022-08-19T11:34:44;94425.72;;;32.26;61.02
23164;BME280;31429;42.674;23.350;2022-08-19T11:35:45;94450.63;;;32.52;41.32
23164;BME280;31429;42.674;23.350;2022-08-19T11:36:47;94453.34;;;32.65;39.20
23164;BME280;31429;42.674;23.350;2022-08-19T11:37:48;94444.41;;;32.79;44.67
23164;BME280;31429;42.674;23.350;2022-08-19T11:38:49;94442.63;;;32.86;43.55
23164;BME280;31429;42.674;23.350;2022-08-19T11:39:50;94446.09;;;32.86;37.44
23164;BME280;31429;42.674;23.350;2022-08-19T11:40:55;94426.09;;;32.90;42.08
23164;BME280;31429;42.674;23.350;2022-08-19T11:41:58;94433.47;;;32.95;37.31
23164;BME280;31429;42.674;23.350;2022-08-19T11:42:58;94435.94;;;33.10;36.96
23164;BME280;31429;42.674;23.350;2022-08-19T11:43:59;94398.81;;;32.96;38.87
23164;BME280;31429;42.674;23.350;2022-08-19T11:45:00;94446.53;;;33.29;37.04
23164;BME280;31429;42.674;23.350;2022-08-19T11:46:04;94435.75;;;33.31;38.23
23164;BME280;31429;42.674;23.350;2022-08-19T11:47:07;94389.66;;;33.12;43.62
23164;BME280;31429;42.674;23.350;2022-08-19T11:48:07;94439.63;;;33.48;44.22
23164;BME280;31429;42.674;23.350;2022-08-19T11:49:08;94389.06;;;33.17;47.66
23164;BME280;31429;42.674;23.350;2022-08-19T11:50:11;94379.88;;;32.99;49.71
23164;BME280;31429;42.674;23.350;2022-08-19T11:51:15;94413.72;;;33.24;39.12
23164;BME280;31429;42.674;23.350;2022-08-19T11:52:16;94437.41;;;33.32;47.02
23164;BME280;31429;42.674;23.350;2022-08-19T11:53:17;94433.50;;;33.41;46.56
23164;BME280;31429;42.674;23.350;2022-08-19T11:54:18;94439.44;;;33.36;37.80
23164;BME280;31429;42.674;23.350;2022-08-19T11:55:19;94438.81;;;33.47;42.56
23164;BME280;31429;42.674;23.350;2022-08-19T11:56:20;94433.09;;;33.50;39.15
23164;BME280;31429;42.674;23.350;2022-08-19T11:57:21;94409.66;;;33.28;37.23
23164;BME280;31429;42.674;23.350;2022-08-19T11:58:22;94438.19;;;33.52;38.23
23164;BME280;31429;42.674;23.350;2022-08-19T11:59:23;94433.31;;;33.62;44.55
23164;BME280;31429;42.674;23.350;2022-08-19T12:00:24;94406.38;;;33.32;37.28
23164;BME280;31429;42.674;23.350;2022-08-19T12:01:25;94407.81;;;33.09;39.71
23164;BME280;31429;42.674;23.350;2022-08-19T12:02:26;94431.06;;;33.33;39.95
23164;BME280;31429;42.674;23.350;2022-08-19T12:03:27;94427.00;;;33.37;36.99
23164;BME280;31429;42.674;23.350;2022-08-19T12:04:28;94419.84;;;33.44;37.71
23164;BME280;31429;42.674;23.350;2022-08-19T12:05:30;94424.13;;;33.51;38.66
23164;BME280;31429;42.674;23.350;2022-08-19T12:06:32;94419.22;;;33.42;36.27
23164;BME280;31429;42.674;23.350;2022-08-19T12:07:34;94401.50;;;33.23;37.40
23164;BME280;31429;42.674;23.350;2022-08-19T12:08:35;94391.31;;;33.26;41.49
23164;BME280;31429;42.674;23.350;2022-08-19T12:09:36;94418.41;;;33.22;42.52
23164;BME280;31429;42.674;23.350;2022-08-19T12:10:36;94421.44;;;33.06;39.25
23164;BME280;31429;42.674;23.350;2022-08-19T12:11:38;94413.53;;;33.19;36.97
23164;BME280;31429;42.674;23.350;2022-08-19T12:12:39;94409.66;;;33.34;38.85
23164;BME280;31429;42.674;23.350;2022-08-19T12:13:43;94413.09;;;33.35;37.70
23164;BME280;31429;42.674;23.350;2022-08-19T12:14:46;94391.88;;;33.02;42.12
23164;BME280;31429;42.674;23.350;2022-08-19T12:15:47;94410.25;;;33.10;43.70
23164;BME280;31429;42.674;23.350;2022-08-19T12:16:48;94396.63;;;33.20;39.07
23164;BME280;31429;42.674;23.350;2022-08-19T12:17:49;94418.00;;;33.44;38.33
23164;BME280;31429;42.674;23.350;2022-08-19T12:18:50;94392.72;;;33.42;46.28
23164;BME280;31429;42.674;23.350;2022-08-19T12:19:51;94385.00;;;33.40;40.63
23164;BME280;31429;42.674;23.350;2022-08-19T12:20:53;94391.09;;;33.34;40.40
23164;BME280;31429;42.674;23.350;2022-08-19T12:21:59;94374.97;;;33.29;47.85
23164;BME280;31429;42.674;23.350;2022-08-19T12:23:02;94392.34;;;33.32;45.40
23164;BME280;31429;42.674;23.350;2022-08-19T12:24:04;94397.63;;;33.32;41.70
23164;BME280;31429;42.674;23.350;2022-08-19T12:25:09;94394.56;;;33.41;36.92
23164;BME280;31429;42.674;23.350;2022-08-19T12:26:10;94334.19;;;33.04;36.54
23164;BME280;31429;42.674;23.350;2022-08-19T12:27:11;94378.66;;;33.35;36.08
23164;BME280;31429;42.674;23.350;2022-08-19T12:28:12;94391.09;;;33.54;40.42
23164;BME280;31429;42.674;23.350;2022-08-19T12:29:13;94360.31;;;33.40;37.53
23164;BME280;31429;42.674;23.350;2022-08-19T12:30:15;94392.09;;;33.66;39.63
23164;BME280;31429;42.674;23.350;2022-08-19T12:31:16;94379.28;;;33.63;38.02
23164;BME280;31429;42.674;23.350;2022-08-19T12:32:17;94393.09;;;33.52;37.31
23164;BME280;31429;42.674;23.350;2022-08-19T12:33:19;94385.38;;;33.44;36.92
23164;BME280;31429;42.674;23.350;2022-08-19T12:34:23;94368.88;;;33.35;34.88
23164;BME280;31429;42.674;23.350;2022-08-19T12:35:25;94384.34;;;33.58;41.26
23164;BME280;31429;42.674;23.350;2022-08-19T12:36:27;94384.75;;;33.68;40.88
23164;BME280;31429;42.674;23.350;2022-08-19T12:37:27;94382.31;;;33.67;36.29
23164;BME280;31429;42.674;23.350;2022-08-19T12:38:28;94382.06;;;33.75;42.34
23164;BME280;31429;42.674;23.350;2022-08-19T12:39:29;94382.91;;;33.75;39.13
23164;BME280;31429;42.674;23.350;2022-08-19T12:40:31;94381.69;;;33.71;38.46
23164;BME280;31429;42.674;23.350;2022-08-19T12:41:32;94372.91;;;33.71;39.16
23164;BME280;31429;42.674;23.350;2022-08-19T12:42:32;94380.66;;;33.79;41.27
23164;BME280;31429;42.674;23.350;2022-08-19T12:43:33;94378.41;;;33.76;37.73
23164;BME280;31429;42.674;23.350;2022-08-19T12:44:35;94330.94;;;33.48;42.16
23164;BME280;31429;42.674;23.350;2022-08-19T12:45:37;94371.69;;;33.80;41.96
23164;BME280;31429;42.674;23.350;2022-08-19T12:46:38;94375.97;;;33.74;38.16
23164;BME280;31429;42.674;23.350;2022-08-19T12:47:39;94376.16;;;33.73;38.00
23164;BME280;31429;42.674;23.350;2022-08-19T12:48:40;94378.81;;;33.73;37.59
23164;BME280;31429;42.674;23.350;2022-08-19T12:49:43;94379.00;;;33.84;39.13
23164;BME280;31429;42.674;23.350;2022-08-19T12:50:45;94389.41;;;33.86;38.47
23164;BME280;31429;42.674;23.350;2022-08-19T12:51:47;94380.88;;;33.77;37.26
23164;BME280;31429;42.674;23.350;2022-08-19T12:52:48;94379.06;;;33.65;36.46
23164;BME280;31429;42.674;23.350;2022-08-19T12:53:48;94362.72;;;33.61;37.36
23164;BME280;31429;42.674;23.350;2022-08-19T12:54:50;94363.97;;;33.65;37.08
23164;BME280;31429;42.674;23.350;2022-08-19T12:55:55;94371.03;;;33.78;39.76
23164;BME280;31429;42.674;23.350;2022-08-19T12:56:56;94363.72;;;33.73;35.81
23164;BME280;31429;42.674;23.350;2022-08-19T12:57:57;94377.16;;;33.78;35.74
23164;BME280;31429;42.674;23.350;2022-08-19T12:59:00;94369.88;;;33.61;34.82
23164;BME280;31429;42.674;23.350;2022-08-19T13:00:05;94372.16;;;33.37;41.66
23164;BME280;31429;42.674;23.350;2022-08-19T13:01:11;94373.94;;;33.43;40.17
23164;BME280;31429;42.674;23.350;2022-08-19T13:02:12;94375.38;;;33.52;37.64
23164;BME280;31429;42.674;23.350;2022-08-19T13:03:13;94350.72;;;33.39;36.96
23164;BME280;31429;42.674;23.350;2022-08-19T13:04:13;94352.34;;;33.33;38.66
23164;BME280;31429;42.674;23.350;2022-08-19T13:05:16;94378.25;;;33.38;40.16
23164;BME280;31429;42.674;23.350;2022-08-19T13:06:17;94356.25;;;33.37;37.65
23164;BME280;31429;42.674;23.350;2022-08-19T13:07:19;94345.81;;;33.36;38.38
23164;BME280;31429;42.674;23.350;2022-08-19T13:08:20;94379.66;;;33.47;38.67
23164;BME280;31429;42.674;23.350;2022-08-19T13:09:21;94356.25;;;33.37;40.40
23164;BME280;31429;42.674;23.350;2022-08-19T13:10:23;94357.25;;;33.43;37.68
23164;BME280;31429;42.674;23.350;2022-08-19T13:11:25;94372.31;;;33.62;42.02
23164;BME280;31429;42.674;23.350;2022-08-19T13:12:26;94316.28;;;33.26;42.01
23164;BME280;31429;42.674;23.350;2022-08-19T13:13:27;94367.63;;;33.51;37.08
23164;BME280;31429;42.674;23.350;2022-08-19T13:14:27;94374.56;;;33.45;44.65
23164;BME280;31429;42.674;23.350;2022-08-19T13:15:33;94364.59;;;33.34;44.84
23164;BME280;31429;42.674;23.350;2022-08-19T13:16:34;94231.94;;;32.18;50.04
23164;BME280;31429;42.674;23.350;2022-08-19T13:17:36;94344.41;;;32.81;38.85
23164;BME280;31429;42.674;23.350;2022-08-19T13:18:39;94360.09;;;32.95;41.56
23164;BME280;31429;42.674;23.350;2022-08-19T13:19:40;94338.91;;;32.89;37.19
23164;BME280;31429;42.674;23.350;2022-08-19T13:20:41;94357.47;;;33.09;37.86
23164;BME280;31429;42.674;23.350;2022-08-19T13:21:42;94346.06;;;33.08;39.13
23164;BME280;31429;42.674;23.350;2022-08-19T13:22:44;94359.53;;;33.26;42.14
23164;BME280;31429;42.674;23.350;2022-08-19T13:23:45;94354.00;;;33.28;35.55
23164;BME280;31429;42.674;23.350;2022-08-19T13:24:46;94356.44;;;33.29;36.26
23164;BME280;31429;42.674;23.350;2022-08-19T13:25:56;94358.91;;;33.11;38.60
23164;BME280;31429;42.674;23.350;2022-08-19T13:26:57;94354.84;;;33.09;36.65
23164;BME280;31429;42.674;23.350;2022-08-19T13:27:59;94351.56;;;33.20;37.73
23164;BME280;31429;42.674;23.350;2022-08-19T13:28:59;94302.03;;;33.01;37.76
23164;BME280;31429;42.674;23.350;2022-08-19T13:30:19;94349.28;;;33.43;44.04
23164;BME280;31429;42.674;23.350;2022-08-19T13:31:40;94350.09;;;33.50;42.04
23164;BME280;31429;42.674;23.350;2022-08-19T13:33:00;94350.69;;;33.52;39.86
23164;BME280;31429;42.674;23.350;2022-08-19T13:34:15;94284.13;;;33.09;36.34
23164;BME280;31429;42.674;23.350;2022-08-19T13:35:16;94348.84;;;33.52;43.44
23164;BME280;31429;42.674;23.350;2022-08-19T13:36:17;94322.56;;;33.38;45.17
23164;BME280;31429;42.674;23.350;2022-08-19T13:37:18;94347.44;;;33.50;37.00
23164;BME280;31429;42.674;23.350;2022-08-19T13:38:40;94350.72;;;33.59;44.35
23164;BME280;31429;42.674;23.350;2022-08-19T13:39:40;94349.28;;;33.63;45.17
23164;BME280;31429;42.674;23.350;2022-08-19T13:40:41;94332.94;;;33.52;44.93
23164;BME280;31429;42.674;23.350;2022-08-19T13:41:44;94345.41;;;33.59;43.66
23164;BME280;31429;42.674;23.350;2022-08-19T13:42:50;94297.56;;;33.08;45.35